createdAt,value
2022-10-02T06:27:06.911Z,2.78
2022-10-02T06:38:15.377Z,2.83
2022-10-02T06:49:24.961Z,2.84
2022-10-02T07:00:16.889Z,2.85
2022-10-02T07:11:25.453Z,2.86
2022-10-02T07:22:45.439Z,2.90
2022-10-02T07:33:32.006Z,2.91
2022-10-02T07:44:17.350Z,2.92
2022-10-02T07:55:29.428Z,2.91
2022-10-02T08:06:10.568Z,2.91
2022-10-02T08:16:58.177Z,2.92
2022-10-02T08:27:55.362Z,2.96
2022-10-02T08:38:55.466Z,2.97
2022-10-02T08:49:55.185Z,3.04
2022-10-02T09:00:52.505Z,3.05
2022-10-02T09:11:53.046Z,3.06
2022-10-02T09:22:45.842Z,3.07
2022-10-02T09:33:44.519Z,3.10
2022-10-02T09:44:43.863Z,3.09
2022-10-02T09:55:44.126Z,3.10
2022-10-02T10:06:43.654Z,3.09
2022-10-02T10:17:39.054Z,3.10
2022-10-02T10:28:34.990Z,3.11
2022-10-02T10:39:14.260Z,3.10
2022-10-02T10:49:50.433Z,3.11
2022-10-02T11:00:51.656Z,3.10
2022-10-02T11:11:48.775Z,3.10
2022-10-02T11:22:50.349Z,3.13
2022-10-02T11:33:51.269Z,3.13
2022-10-02T11:44:50.607Z,3.16
2022-10-02T11:55:48.950Z,3.20
2022-10-02T12:06:24.701Z,3.16
2022-10-02T12:17:24.092Z,3.17
2022-10-02T12:28:00.152Z,3.22
2022-10-02T12:38:58.686Z,3.23
2022-10-02T12:49:53.827Z,3.22
2022-10-02T13:00:54.447Z,3.20
2022-10-02T13:11:46.550Z,3.22
2022-10-02T13:22:32.383Z,3.22
2022-10-02T13:33:30.988Z,3.22
2022-10-02T13:44:12.876Z,3.32
2022-10-02T13:55:08.535Z,3.29
2022-10-02T14:06:07.139Z,3.31
2022-10-02T14:17:05.680Z,3.25
2022-10-02T14:28:03.378Z,3.24
2022-10-02T14:39:03.758Z,3.23
2022-10-02T14:50:03.298Z,3.26
2022-10-02T15:01:03.241Z,3.22
2022-10-02T15:12:08.435Z,3.16
2022-10-02T15:22:43.180Z,3.17
2022-10-02T15:33:41.850Z,3.17
2022-10-02T15:44:39.438Z,3.14
2022-10-02T15:55:19.501Z,3.12
2022-10-02T16:05:56.946Z,3.10
2022-10-02T16:16:56.578Z,3.09
2022-10-02T16:27:51.869Z,3.09
2022-10-02T16:38:28.403Z,3.06
2022-10-02T16:49:26.132Z,3.06
2022-10-02T17:00:04.502Z,3.05
2022-10-02T17:11:01.512Z,3.04
2022-10-02T17:22:01.087Z,3.04
2022-10-02T17:33:02.242Z,3.04
2022-10-02T17:43:48.604Z,3.03
2022-10-02T17:54:31.472Z,3.02
2022-10-02T18:05:16.971Z,3.01
2022-10-02T18:16:03.942Z,3.00
2022-10-02T18:27:00.373Z,3.00
2022-10-02T18:37:38.021Z,2.99
2022-10-02T18:48:33.513Z,2.99
2022-10-02T18:59:30.569Z,2.99
2022-10-02T19:10:09.634Z,2.98
2022-10-02T19:21:10.208Z,2.98
2022-10-02T19:32:12.070Z,2.98
2022-10-02T19:43:06.165Z,2.97
2022-10-02T19:54:01.341Z,2.97
2022-10-02T20:04:58.158Z,2.96
2022-10-02T20:15:53.157Z,2.96
2022-10-02T20:26:52.231Z,2.96
2022-10-02T20:37:51.731Z,2.96
2022-10-02T20:49:08.126Z,2.96
2022-10-02T20:59:39.847Z,2.94
2022-10-02T21:10:35.257Z,2.94
2022-10-02T21:21:15.902Z,2.94
2022-10-02T21:32:18.586Z,2.94
2022-10-02T21:43:15.032Z,2.94
2022-10-02T21:54:12.234Z,2.93
2022-10-02T22:05:06.158Z,2.92
2022-10-02T22:16:11.058Z,2.92
2022-10-02T22:27:16.952Z,2.92
2022-10-02T22:38:15.357Z,2.91
2022-10-02T22:49:21.537Z,2.91
2022-10-02T23:00:25.650Z,2.90
2022-10-02T23:11:15.965Z,2.90
2022-10-02T23:22:05.354Z,2.89
2022-10-02T23:33:10.983Z,2.89
2022-10-02T23:44:18.226Z,2.89
2022-10-02T23:55:15.829Z,2.88
